Au Sable Forks, New York
Current Conditions -  °F | °C
As of 12:53 AM on Thursday 23 Oct 2014 (Local Time) from KPBG Reporting Station
Overcast Overcast  
Wind Chill: 39°   Ceiling: 4200
Heat Index: 46°   Visibility: 10mi
Dew Point: 36°   Wind: 17mph
Humidity: 68%   Direction: 350°N
Pressure: 30.1"   Gusts: 28mph
Location:  44.44°N, 73.67°W
Report Text: KPBG 230453Z AUTO 35015G24KT 10SM OVC042 08/02 A3010 RMK AO2 SLP193 T00780022 401170061
Loading
Personal Weather Stations






























Interactive Weather Map
Tropical Storm Tracking
New forecast layout! Learn more

10-Day Weather Forecast

Advertisements
Track Severe Weather on mobile